Time;durP1;ratioP1;P1;durP2;ratioP2;P2;SDS_P1;SDS_P2;PMS_P1;PMS_P2;Temp;Humidity;BMP_temperature;BMP_pressure;BME280_temperature;BME280_humidity;BME280_pressure;Samples;Min_cycle;Max_cycle;Signal;HPM_P1;HPM_P2
2022/11/09 00:01:41;;;;;;;4.35;1.80;;;17.20;99.90;;;;;;5008892;28;20239;-31
2022/11/09 00:04:09;;;;;;;3.77;1.30;;;17.20;99.90;;;;;;5007654;28;20220;-30
2022/11/09 00:06:38;;;;;;;4.53;1.80;;;17.20;99.90;;;;;;5004547;28;20209;-30
2022/11/09 00:09:11;;;;;;;5.97;1.73;;;17.20;99.90;;;;;;5011570;28;20202;-31
2022/11/09 00:11:40;;;;;;;6.67;2.10;;;17.20;99.90;;;;;;5020932;28;20312;-31
2022/11/09 00:14:20;;;;;;;3.25;1.50;;;17.10;99.90;;;;;;5025796;28;20219;-31
2022/11/09 00:16:47;;;;;;;4.57;1.50;;;17.20;99.90;;;;;;5022564;28;20204;-30
2022/11/09 00:19:14;;;;;;;3.87;1.50;;;17.20;99.90;;;;;;5016171;28;20208;-30
2022/11/09 00:21:41;;;;;;;5.90;1.97;;;17.20;99.90;;;;;;5016498;28;20252;-30
2022/11/09 00:24:09;;;;;;;6.05;1.80;;;17.10;99.90;;;;;;5009357;28;20634;-31
2022/11/09 00:26:39;;;;;;;4.90;1.83;;;17.10;99.90;;;;;;5006026;28;20766;-30
2022/11/09 00:29:06;;;;;;;3.13;1.43;;;17.10;99.90;;;;;;5009018;28;20221;-30
2022/11/09 00:31:36;;;;;;;3.83;1.37;;;17.10;99.90;;;;;;5016731;28;20233;-31
2022/11/09 00:34:05;;;;;;;4.53;1.50;;;17.10;99.90;;;;;;5013194;28;20288;-30
2022/11/09 00:36:37;;;;;;;8.33;1.60;;;17.00;99.90;;;;;;5016810;28;20198;-31
2022/11/09 00:39:04;;;;;;;3.90;1.20;;;17.00;99.90;;;;;;5018864;28;20235;-30
2022/11/09 00:41:36;;;;;;;3.08;1.42;;;17.00;99.90;;;;;;5014245;28;20286;-30
2022/11/09 00:44:03;;;;;;;6.47;1.50;;;16.90;99.90;;;;;;5014511;28;20527;-30
2022/11/09 00:46:30;;;;;;;4.53;1.37;;;16.90;99.90;;;;;;5006871;28;20228;-30
2022/11/09 00:49:00;;;;;;;8.35;1.90;;;16.90;99.90;;;;;;5012748;28;20324;-30
2022/11/09 00:51:29;;;;;;;5.57;1.88;;;16.80;99.90;;;;;;5006297;28;20499;-31
2022/11/09 00:53:59;;;;;;;5.17;1.93;;;16.80;99.90;;;;;;5008936;28;20202;-30
2022/11/09 00:56:26;;;;;;;4.60;1.87;;;16.80;99.90;;;;;;5005518;28;20691;-31
2022/11/09 00:58:54;;;;;;;6.17;1.47;;;16.80;99.90;;;;;;5014498;28;20575;-31
2022/11/09 01:01:22;;;;;;;7.80;1.43;;;16.80;99.90;;;;;;5022101;28;20205;-30
2022/11/09 01:03:49;;;;;;;7.33;1.73;;;16.80;99.90;;;;;;5010617;28;20638;-30
2022/11/09 01:06:27;;;;;;;6.13;1.70;;;16.70;99.90;;;;;;5012962;28;20209;-30
2022/11/09 01:08:57;;;;;;;6.07;1.67;;;16.70;99.90;;;;;;5011545;28;20688;-30
2022/11/09 01:11:24;;;;;;;3.13;1.50;;;16.70;99.90;;;;;;5025278;28;20221;-29
2022/11/09 01:13:51;;;;;;;6.23;1.53;;;16.60;99.90;;;;;;5012427;28;20209;-30
2022/11/09 01:16:20;;;;;;;5.97;1.63;;;16.60;99.90;;;;;;5010106;28;20297;-30
2022/11/09 01:18:55;;;;;;;3.77;1.70;;;16.60;99.90;;;;;;5014607;28;20205;-30
2022/11/09 01:21:28;;;;;;;5.90;1.73;;;16.60;99.90;;;;;;5023784;28;20687;-30
2022/11/09 01:23:57;;;;;;;6.67;1.93;;;16.50;99.90;;;;;;5016067;28;20575;-31
2022/11/09 01:26:24;;;;;;;7.60;1.67;;;16.50;99.90;;;;;;5012558;28;20208;-30
2022/11/09 01:28:52;;;;;;;4.67;1.50;;;16.50;99.90;;;;;;5020580;28;20713;-30
2022/11/09 01:31:24;;;;;;;5.90;2.17;;;16.50;99.90;;;;;;5022955;28;20229;-30
2022/11/09 01:33:51;;;;;;;7.17;2.00;;;16.50;99.90;;;;;;5022107;28;20673;-30
2022/11/09 01:36:25;;;;;;;6.97;1.80;;;16.50;99.90;;;;;;5004478;28;20625;-30
2022/11/09 01:38:54;;;;;;;5.47;1.83;;;16.50;99.90;;;;;;5017623;28;20204;-30
2022/11/09 01:41:31;;;;;;;5.37;1.43;;;16.50;99.90;;;;;;5036124;28;20216;-31
2022/11/09 01:44:12;;;;;;;6.47;1.50;;;16.50;99.90;;;;;;5006517;28;20211;-30
2022/11/09 01:46:44;;;;;;;6.27;1.90;;;16.40;99.90;;;;;;5021970;28;20247;-30
2022/11/09 01:49:42;;;;;;;4.47;2.00;;;16.40;99.90;;;;;;5011126;28;20268;-30
2022/11/09 01:52:19;;;;;;;5.35;1.70;;;16.40;99.90;;;;;;5005020;28;20228;-30
2022/11/09 01:55:24;;;;;;;6.13;1.50;;;16.40;99.90;;;;;;5020291;28;20208;-30
2022/11/09 01:57:58;;;;;;;7.67;1.57;;;16.40;99.90;;;;;;5019218;28;20220;-30
2022/11/09 02:00:25;;;;;;;6.57;2.10;;;16.40;99.90;;;;;;5004454;28;20671;-30
2022/11/09 02:02:57;;;;;;;8.50;2.17;;;16.40;99.90;;;;;;5008492;28;20846;-30
2022/11/09 02:05:30;;;;;;;4.80;1.50;;;16.40;99.90;;;;;;5017607;28;20217;-30
2022/11/09 02:08:01;;;;;;;5.70;1.77;;;16.40;99.90;;;;;;5011156;28;20205;-34
2022/11/09 02:10:52;;;;;;;6.50;1.60;;;16.40;99.90;;;;;;5020665;28;20228;-30
2022/11/09 02:13:23;;;;;;;5.43;1.70;;;16.40;99.90;;;;;;5012339;28;20581;-30
2022/11/09 02:15:55;;;;;;;5.90;1.33;;;16.40;99.90;;;;;;5006917;28;20239;-30
2022/11/09 02:18:25;;;;;;;5.97;2.03;;;16.40;99.90;;;;;;5024880;28;20577;-31
2022/11/09 02:20:59;;;;;;;6.47;2.07;;;16.40;99.90;;;;;;5020986;28;20956;-30
2022/11/09 02:23:26;;;;;;;8.40;1.67;;;16.50;99.90;;;;;;5022997;28;20217;-30
2022/11/09 02:26:05;;;;;;;7.93;1.63;;;16.50;99.90;;;;;;5008148;28;20241;-30
2022/11/09 02:28:37;;;;;;;5.53;1.40;;;16.50;99.90;;;;;;5022622;28;20213;-30
2022/11/09 02:31:11;;;;;;;5.67;1.37;;;16.50;99.90;;;;;;5020871;28;20227;-30
2022/11/09 02:33:50;;;;;;;4.53;2.00;;;16.50;99.90;;;;;;5023312;28;20213;-31
2022/11/09 02:36:21;;;;;;;5.07;1.70;;;16.50;99.90;;;;;;5012194;28;20244;-30
2022/11/09 02:38:55;;;;;;;8.77;2.00;;;16.50;99.90;;;;;;5021740;28;20193;-30
2022/11/09 02:41:23;;;;;;;6.07;1.70;;;16.50;99.90;;;;;;5018786;28;20303;-30
2022/11/09 02:43:52;;;;;;;4.53;1.37;;;16.50;99.90;;;;;;5022114;28;20200;-30
2022/11/09 02:46:34;;;;;;;8.13;1.93;;;16.50;99.90;;;;;;5015029;28;20728;-30
2022/11/09 02:49:04;;;;;;;6.43;1.50;;;16.50;99.90;;;;;;5021817;28;20240;-30
2022/11/09 02:51:31;;;;;;;7.13;2.10;;;16.50;99.90;;;;;;5020294;28;20669;-30
2022/11/09 02:53:58;;;;;;;8.13;1.20;;;16.50;99.90;;;;;;5020731;28;20288;-31
2022/11/09 02:56:30;;;;;;;8.67;1.80;;;16.50;99.90;;;;;;5009301;28;20220;-30
2022/11/09 02:58:57;;;;;;;8.13;1.90;;;16.50;99.90;;;;;;5021913;28;20205;-30
2022/11/09 03:01:24;;;;;;;6.07;2.07;;;16.50;99.90;;;;;;5016579;28;20232;-31
2022/11/09 03:03:51;;;;;;;6.17;1.57;;;16.50;99.90;;;;;;5022187;28;20581;-30
2022/11/09 03:06:18;;;;;;;6.27;1.50;;;16.40;99.90;;;;;;5016095;28;20994;-31
2022/11/09 03:08:45;;;;;;;5.13;1.63;;;16.40;99.90;;;;;;5020523;28;20563;-30
2022/11/09 03:11:15;;;;;;;8.43;2.00;;;16.40;99.90;;;;;;5023719;28;20532;-30
2022/11/09 03:13:44;;;;;;;6.60;2.20;;;16.50;99.90;;;;;;5024541;28;20200;-31
2022/11/09 03:16:16;;;;;;;8.27;1.70;;;16.40;99.90;;;;;;5010238;28;20279;-30
2022/11/09 03:18:45;;;;;;;9.50;2.03;;;16.40;99.90;;;;;;5024197;28;20270;-31
2022/11/09 03:21:12;;;;;;;5.40;1.53;;;16.30;99.90;;;;;;5019974;28;20220;-30
2022/11/09 03:23:39;;;;;;;4.50;1.53;;;16.30;99.90;;;;;;5013615;28;20967;-31
2022/11/09 03:26:07;;;;;;;4.23;1.50;;;16.30;99.90;;;;;;5017668;28;20208;-30
2022/11/09 03:28:34;;;;;;;6.20;1.57;;;16.30;99.90;;;;;;5017340;28;20223;-30
2022/11/09 03:31:01;;;;;;;5.93;1.80;;;16.20;99.90;;;;;;5017032;28;20213;-30
2022/11/09 03:33:28;;;;;;;8.37;1.67;;;16.20;99.90;;;;;;5019248;28;20205;-30
2022/11/09 03:35:55;;;;;;;8.83;1.40;;;16.20;99.90;;;;;;5018410;28;20212;-31
2022/11/09 03:38:24;;;;;;;7.77;1.57;;;16.20;99.90;;;;;;5014749;28;20791;-31
2022/11/09 03:40:54;;;;;;;6.83;1.67;;;16.10;99.90;;;;;;5013703;28;20562;-30
2022/11/09 03:43:23;;;;;;;6.67;1.87;;;16.10;99.90;;;;;;5005199;28;20296;-30
2022/11/09 03:45:50;;;;;;;7.57;1.40;;;16.10;99.90;;;;;;5013659;28;20219;-31
2022/11/09 03:48:22;;;;;;;6.33;1.50;;;16.10;99.90;;;;;;5017623;28;20229;-30
2022/11/09 03:50:49;;;;;;;6.50;1.90;;;16.00;99.90;;;;;;5021066;28;20236;-31
2022/11/09 03:53:17;;;;;;;6.07;1.50;;;16.00;99.90;;;;;;5015494;28;20233;-31
2022/11/09 03:55:50;;;;;;;5.80;1.60;;;16.00;99.90;;;;;;5013488;28;20197;-31
2022/11/09 03:58:22;;;;;;;4.93;1.70;;;16.00;99.90;;;;;;5006552;28;20707;-30
2022/11/09 04:00:51;;;;;;;6.20;1.50;;;16.00;99.90;;;;;;5020282;28;20205;-30
2022/11/09 04:03:18;;;;;;;6.53;1.70;;;16.00;99.90;;;;;;5006131;28;20633;-31
2022/11/09 04:05:46;;;;;;;6.87;1.47;;;16.00;99.90;;;;;;5008228;28;20209;-30
2022/11/09 04:08:15;;;;;;;7.60;1.40;;;16.00;99.90;;;;;;5021016;28;20201;-31
2022/11/09 04:10:44;;;;;;;4.47;1.60;;;16.00;99.90;;;;;;5019516;28;20221;-30
2022/11/09 04:13:14;;;;;;;6.10;1.53;;;16.10;99.90;;;;;;5006370;28;20217;-30
2022/11/09 04:15:42;;;;;;;6.43;1.97;;;16.10;99.90;;;;;;5024663;28;20209;-30
2022/11/09 04:18:12;;;;;;;7.93;2.10;;;16.10;99.90;;;;;;5020441;28;20204;-30
2022/11/09 04:20:42;;;;;;;9.17;1.73;;;16.10;99.90;;;;;;5012223;28;20217;-30
2022/11/09 04:23:11;;;;;;;8.47;2.20;;;16.00;99.90;;;;;;5020577;28;20204;-30
2022/11/09 04:25:40;;;;;;;7.13;1.60;;;16.00;99.90;;;;;;5014637;28;20731;-31
2022/11/09 04:28:11;;;;;;;5.30;1.97;;;16.00;99.90;;;;;;5015110;28;20712;-30
2022/11/09 04:30:42;;;;;;;8.47;2.37;;;16.00;99.90;;;;;;5009555;28;20205;-30
2022/11/09 04:33:11;;;;;;;4.83;1.57;;;16.00;99.90;;;;;;5011064;28;20754;-30
2022/11/09 04:35:43;;;;;;;8.90;1.60;;;15.90;99.90;;;;;;5007063;28;20213;-30
2022/11/09 04:38:12;;;;;;;5.27;1.57;;;15.90;99.90;;;;;;5010167;28;20611;-30
2022/11/09 04:40:40;;;;;;;8.50;1.83;;;15.90;99.90;;;;;;5017240;28;20205;-30
2022/11/09 04:43:16;;;;;;;4.67;1.77;;;15.90;99.90;;;;;;5013446;28;20212;-30
2022/11/09 04:45:46;;;;;;;6.47;1.70;;;15.80;99.90;;;;;;5014190;28;20252;-30
2022/11/09 04:48:16;;;;;;;7.33;1.90;;;15.80;99.90;;;;;;5008213;28;20329;-30
2022/11/09 04:50:43;;;;;;;6.03;1.40;;;15.80;99.90;;;;;;5017765;28;20202;-30
2022/11/09 04:53:14;;;;;;;6.37;2.40;;;15.70;99.90;;;;;;5011276;28;20317;-30
2022/11/09 04:55:43;;;;;;;5.37;1.60;;;15.70;99.90;;;;;;5015955;28;20676;-30
2022/11/09 04:58:13;;;;;;;5.33;1.67;;;15.70;99.90;;;;;;5013133;28;20287;-30
2022/11/09 05:00:40;;;;;;;6.70;1.90;;;15.60;99.90;;;;;;5011593;28;20205;-30
2022/11/09 05:03:15;;;;;;;8.80;1.70;;;15.60;99.90;;;;;;5021163;28;20216;-30
2022/11/09 05:05:45;;;;;;;7.33;1.70;;;15.60;99.90;;;;;;5018681;28;20215;-29
2022/11/09 05:08:17;;;;;;;8.43;1.97;;;15.60;99.90;;;;;;5011790;28;20205;-30
2022/11/09 05:10:44;;;;;;;9.80;1.67;;;15.60;99.90;;;;;;5033349;28;20223;-30
2022/11/09 05:13:14;;;;;;;5.23;1.63;;;15.50;99.90;;;;;;5013929;28;20244;-30
2022/11/09 05:15:41;;;;;;;7.47;1.37;;;15.50;99.90;;;;;;5007219;28;20237;-30
2022/11/09 05:18:09;;;;;;;4.47;1.40;;;15.50;99.90;;;;;;5019123;28;20288;-30
2022/11/09 05:20:43;;;;;;;6.90;1.70;;;15.50;99.90;;;;;;5005682;28;20221;-30
2022/11/09 05:26:02;;;;;;;4.07;1.70;;;15.50;99.90;;;;;;5014444;28;20213;-30
2022/11/09 05:28:31;;;;;;;9.27;1.70;;;15.40;99.90;;;;;;5021764;28;20609;-30
2022/11/09 05:31:01;;;;;;;8.50;1.90;;;15.40;99.90;;;;;;5006559;28;20324;-29
2022/11/09 05:33:28;;;;;;;4.20;1.33;;;15.40;99.90;;;;;;5034473;28;20236;-29
2022/11/09 05:35:55;;;;;;;5.87;1.43;;;15.40;99.90;;;;;;5016643;28;20615;-29
2022/11/09 05:38:23;;;;;;;4.57;2.07;;;15.40;99.90;;;;;;5010925;28;20217;-29
2022/11/09 05:40:54;;;;;;;3.77;1.50;;;15.30;99.90;;;;;;5006266;28;20291;-29
2022/11/09 05:43:23;;;;;;;4.27;1.50;;;15.30;99.90;;;;;;5012648;28;20454;-29
2022/11/09 05:45:50;;;;;;;5.43;2.20;;;15.30;99.90;;;;;;5005209;28;20209;-29
2022/11/09 05:48:17;;;;;;;6.00;1.70;;;15.30;99.90;;;;;;5006768;28;20755;-29
2022/11/09 05:50:47;;;;;;;5.37;1.47;;;15.30;99.90;;;;;;5007871;28;20241;-29
2022/11/09 05:53:14;;;;;;;5.17;1.50;;;15.30;99.90;;;;;;5017363;28;20777;-29
2022/11/09 05:55:41;;;;;;;5.30;1.83;;;15.20;99.90;;;;;;5021388;28;20308;-29
2022/11/09 05:58:09;;;;;;;5.43;1.53;;;15.20;99.90;;;;;;5008387;28;20680;-29
2022/11/09 06:00:36;;;;;;;4.83;1.60;;;15.20;99.90;;;;;;5016803;28;20201;-29
2022/11/09 06:03:05;;;;;;;4.80;1.57;;;15.20;99.90;;;;;;5023851;28;20300;-29
2022/11/09 06:05:37;;;;;;;4.50;1.50;;;15.10;99.90;;;;;;5020210;28;20304;-29
2022/11/09 06:08:07;;;;;;;7.23;2.10;;;15.10;99.90;;;;;;5022412;28;20230;-29
2022/11/09 06:10:35;;;;;;;6.23;2.00;;;15.10;99.90;;;;;;5024524;28;20213;-29
2022/11/09 06:13:07;;;;;;;5.67;1.70;;;15.10;99.90;;;;;;5022717;28;20231;-29
2022/11/09 06:15:36;;;;;;;6.33;1.50;;;15.10;99.90;;;;;;5024120;28;20307;-29
2022/11/09 06:18:03;;;;;;;9.20;2.00;;;15.00;99.90;;;;;;5025842;28;20334;-29
2022/11/09 06:20:35;;;;;;;6.07;1.83;;;15.10;99.90;;;;;;5038213;28;21050;-29
2022/11/09 06:23:05;;;;;;;6.67;1.70;;;15.00;99.90;;;;;;5018780;28;20206;-29
2022/11/09 06:25:36;;;;;;;7.53;1.80;;;15.00;99.90;;;;;;5011641;28;20605;-29
2022/11/09 06:28:03;;;;;;;6.90;1.50;;;15.00;99.90;;;;;;5019484;28;20201;-29
2022/11/09 06:30:33;;;;;;;9.10;2.00;;;14.90;99.90;;;;;;5017974;28;20229;-29
2022/11/09 06:33:05;;;;;;;6.37;2.07;;;14.90;99.90;;;;;;5016484;28;20228;-29
2022/11/09 06:35:32;;;;;;;6.53;1.80;;;14.90;99.90;;;;;;5024901;28;20731;-29
2022/11/09 06:38:00;;;;;;;6.17;1.70;;;14.90;99.90;;;;;;5027920;28;20200;-29
2022/11/09 06:40:27;;;;;;;8.63;2.00;;;14.90;99.90;;;;;;5023817;28;20232;-30
2022/11/09 06:42:57;;;;;;;6.07;1.93;;;14.90;99.90;;;;;;5030499;28;20308;-35
2022/11/09 06:45:25;;;;;;;8.23;2.10;;;14.90;99.90;;;;;;5024965;28;20200;-31
2022/11/09 06:48:01;;;;;;;5.70;1.60;;;14.90;99.90;;;;;;5027243;28;20724;-31
2022/11/09 06:50:31;;;;;;;7.33;1.60;;;14.90;99.90;;;;;;5026409;28;20209;-30
2022/11/09 06:53:06;;;;;;;8.60;1.93;;;14.80;99.90;;;;;;5024089;28;20217;-30
2022/11/09 06:55:38;;;;;;;5.37;1.43;;;14.80;99.90;;;;;;5039179;28;20203;-30
2022/11/09 06:58:07;;;;;;;4.10;1.60;;;14.80;99.90;;;;;;5022554;28;20222;-30
2022/11/09 07:00:37;;;;;;;7.10;1.77;;;14.80;99.90;;;;;;5032712;28;20290;-29
2022/11/09 07:03:04;;;;;;;8.40;1.70;;;14.80;99.90;;;;;;5020574;28;20301;-29
2022/11/09 07:05:32;;;;;;;7.17;1.97;;;14.80;99.90;;;;;;5022344;28;20612;-29
2022/11/09 07:08:01;;;;;;;13.80;2.40;;;14.80;99.90;;;;;;5006703;28;20957;-29
2022/11/09 07:10:33;;;;;;;4.77;1.57;;;14.80;99.90;;;;;;5012805;28;20205;-29
2022/11/09 07:13:02;;;;;;;5.00;2.00;;;14.80;99.90;;;;;;5008515;28;20619;-30
2022/11/09 07:15:30;;;;;;;5.23;1.70;;;14.80;99.90;;;;;;5020849;28;20335;-30
2022/11/09 07:18:01;;;;;;;8.53;1.80;;;14.80;99.90;;;;;;5030359;28;20208;-30
2022/11/09 07:20:31;;;;;;;5.67;1.43;;;14.80;99.90;;;;;;5024995;28;20572;-30
2022/11/09 07:23:01;;;;;;;4.47;1.57;;;14.80;99.90;;;;;;5025078;28;20208;-29
2022/11/09 07:25:28;;;;;;;4.33;1.67;;;14.70;99.90;;;;;;5023789;28;20217;-29
2022/11/09 07:28:04;;;;;;;8.93;2.30;;;14.80;99.90;;;;;;5009290;28;20264;-29
2022/11/09 07:30:31;;;;;;;8.53;1.87;;;14.70;99.90;;;;;;5022711;28;20698;-29
2022/11/09 07:32:59;;;;;;;8.83;2.10;;;14.70;99.90;;;;;;5027463;28;20216;-29
2022/11/09 07:35:36;;;;;;;8.73;1.90;;;14.70;99.90;;;;;;5034590;28;20206;-29
2022/11/09 07:38:04;;;;;;;9.63;3.00;;;14.70;99.90;;;;;;5019042;28;20206;-30
2022/11/09 07:40:31;;;;;;;7.23;1.97;;;14.70;99.90;;;;;;5038781;28;20340;-30
2022/11/09 07:43:02;;;;;;;6.93;1.60;;;14.70;99.90;;;;;;5032502;28;20906;-30
2022/11/09 07:45:33;;;;;;;7.03;2.27;;;14.70;99.90;;;;;;5024024;28;20216;-31
2022/11/09 07:48:06;;;;;;;10.57;2.50;;;14.70;99.90;;;;;;5027610;28;20348;-29
2022/11/09 07:50:37;;;;;;;8.00;2.00;;;14.70;99.90;;;;;;5046660;28;20228;-29
2022/11/09 07:53:08;;;;;;;7.90;2.03;;;14.80;99.90;;;;;;5034550;28;20222;-29
2022/11/09 07:55:41;;;;;;;7.97;1.83;;;14.70;99.90;;;;;;5023707;28;20201;-29
2022/11/09 07:58:15;;;;;;;9.87;2.27;;;14.80;99.90;;;;;;5022401;28;20208;-29
2022/11/09 08:00:43;;;;;;;6.97;1.53;;;14.80;99.90;;;;;;5039137;28;20370;-29
2022/11/09 08:03:10;;;;;;;6.50;1.90;;;14.80;99.90;;;;;;5035205;28;20284;-29
2022/11/09 08:05:38;;;;;;;8.90;1.90;;;14.80;99.90;;;;;;5025450;28;20307;-29
2022/11/09 08:08:09;;;;;;;7.13;1.97;;;14.80;99.90;;;;;;5029619;28;20448;-29
2022/11/09 08:10:37;;;;;;;10.47;2.47;;;14.80;99.90;;;;;;5024150;28;20296;-29
2022/11/09 08:13:12;;;;;;;10.07;2.13;;;14.80;99.90;;;;;;5011326;28;20237;-29
2022/11/09 08:15:40;;;;;;;5.27;1.53;;;14.80;99.90;;;;;;5034313;28;20200;-29
2022/11/09 08:18:14;;;;;;;7.40;1.70;;;14.90;99.90;;;;;;5035778;28;20693;-29
2022/11/09 08:20:44;;;;;;;7.77;1.67;;;14.90;99.90;;;;;;5026310;28;20200;-29
2022/11/09 08:23:16;;;;;;;8.30;1.93;;;14.90;99.90;;;;;;5024481;28;20296;-29
2022/11/09 08:25:43;;;;;;;7.20;1.80;;;14.90;99.90;;;;;;5024460;28;20204;-29
2022/11/09 08:28:11;;;;;;;8.10;1.83;;;14.90;99.90;;;;;;5026967;28;20728;-29
2022/11/09 08:30:42;;;;;;;7.23;2.10;;;15.00;99.90;;;;;;5021574;28;20970;-29
2022/11/09 08:33:12;;;;;;;6.10;1.90;;;15.00;99.90;;;;;;5024714;28;20221;-29
2022/11/09 08:35:44;;;;;;;6.33;1.90;;;15.00;99.90;;;;;;5021200;28;20200;-29
2022/11/09 08:38:21;;;;;;;6.67;1.60;;;15.00;99.90;;;;;;5025911;28;20224;-29
2022/11/09 08:40:49;;;;;;;5.97;1.90;;;15.00;99.90;;;;;;5036972;28;20919;-30
2022/11/09 08:43:21;;;;;;;8.87;2.00;;;15.00;99.90;;;;;;5031325;28;20197;-29
2022/11/09 08:45:52;;;;;;;8.00;2.10;;;15.00;99.90;;;;;;5021938;28;20625;-29
2022/11/09 08:48:20;;;;;;;10.17;2.40;;;15.10;99.90;;;;;;5021390;28;20244;-29
2022/11/09 08:50:55;;;;;;;7.57;2.00;;;15.10;99.90;;;;;;5023837;28;20321;-29
2022/11/09 08:53:29;;;;;;;6.60;2.00;;;15.20;99.90;;;;;;5032678;28;20767;-29
2022/11/09 08:56:05;;;;;;;9.63;2.13;;;15.20;99.90;;;;;;5041149;28;20241;-29
2022/11/09 08:58:35;;;;;;;8.00;1.80;;;15.20;99.90;;;;;;5023006;28;20208;-29
2022/11/09 09:01:07;;;;;;;5.27;1.70;;;15.20;99.90;;;;;;5036127;28;20617;-29
2022/11/09 09:03:41;;;;;;;7.70;1.87;;;15.30;99.90;;;;;;5030732;28;20208;-29
2022/11/09 09:06:11;;;;;;;14.70;2.40;;;15.30;99.90;;;;;;5022678;28;20332;-29
2022/11/09 09:08:38;;;;;;;12.93;2.10;;;15.30;99.90;;;;;;5035659;28;20277;-29
2022/11/09 09:11:06;;;;;;;9.57;1.90;;;15.30;99.90;;;;;;5029076;28;20381;-29
2022/11/09 09:13:36;;;;;;;7.40;1.70;;;15.40;99.90;;;;;;5032116;28;20232;-30
2022/11/09 09:16:14;;;;;;;8.50;2.07;;;15.40;99.90;;;;;;5025343;28;20601;-30
2022/11/09 09:18:41;;;;;;;7.30;1.87;;;15.40;99.90;;;;;;5024613;28;20268;-29
2022/11/09 09:21:12;;;;;;;5.97;1.70;;;15.40;99.90;;;;;;5017466;28;20207;-30
2022/11/09 09:23:42;;;;;;;8.87;2.00;;;15.40;99.90;;;;;;5033081;28;20251;-29
2022/11/09 09:26:11;;;;;;;6.93;2.10;;;15.40;99.90;;;;;;5040130;28;20336;-29
2022/11/09 09:28:39;;;;;;;6.33;1.43;;;15.40;99.90;;;;;;5038824;28;20201;-30
2022/11/09 09:31:07;;;;;;;7.03;1.90;;;15.40;99.90;;;;;;5032424;28;20316;-30
2022/11/09 09:33:36;;;;;;;5.30;1.53;;;15.50;99.90;;;;;;5021943;28;20752;-30
2022/11/09 09:36:09;;;;;;;6.80;1.80;;;15.50;99.90;;;;;;5024199;28;20572;-31
2022/11/09 09:38:38;;;;;;;6.57;2.13;;;15.50;99.90;;;;;;5028658;28;20230;-31
2022/11/09 09:41:09;;;;;;;4.73;1.47;;;15.50;99.90;;;;;;5034655;28;20761;-31
2022/11/09 09:43:41;;;;;;;6.77;1.70;;;15.50;99.90;;;;;;5019140;28;20258;-31
2022/11/09 09:46:31;;;;;;;8.53;2.10;;;15.60;99.90;;;;;;5029563;28;20683;-32
2022/11/09 09:49:11;;;;;;;5.10;1.63;;;15.60;99.90;;;;;;5016864;28;20231;-32
2022/11/09 09:51:46;;;;;;;11.90;2.23;;;15.60;99.90;;;;;;5006442;28;20307;-31
2022/11/09 09:54:23;;;;;;;4.87;1.60;;;15.60;99.90;;;;;;5020484;28;20317;-31
2022/11/09 09:56:57;;;;;;;10.33;2.00;;;15.70;99.90;;;;;;5040401;28;20283;-32
2022/11/09 09:59:43;;;;;;;7.73;1.90;;;15.70;99.90;;;;;;5042997;28;20211;-31
2022/11/09 10:02:24;;;;;;;10.17;1.97;;;15.80;99.90;;;;;;5038865;28;20720;-31
2022/11/09 10:04:59;;;;;;;6.97;1.67;;;15.80;99.90;;;;;;5021170;28;20223;-31
2022/11/09 10:08:13;;;;;;;5.20;1.37;;;15.80;99.90;;;;;;5024696;28;20659;-31
2022/11/09 10:10:59;;;;;;;6.90;1.53;;;15.90;99.90;;;;;;5041259;28;20312;-32
2022/11/09 10:13:47;;;;;;;7.10;2.03;;;15.90;99.90;;;;;;5037816;28;20220;-32
2022/11/09 10:16:43;;;;;;;8.40;2.23;;;15.90;99.90;;;;;;5022421;28;20223;-32
2022/11/09 10:19:38;;;;;;;11.10;2.33;;;15.90;99.90;;;;;;5028455;28;20196;-31
2022/11/09 10:22:24;;;;;;;8.27;1.60;;;15.90;99.90;;;;;;5023488;28;20202;-30
2022/11/09 10:25:05;;;;;;;7.03;1.50;;;16.00;99.90;;;;;;5022360;28;20304;-30
2022/11/09 10:27:55;;;;;;;6.37;1.50;;;16.00;99.90;;;;;;5024990;28;20725;-31
2022/11/09 10:30:24;;;;;;;7.03;2.10;;;16.10;99.90;;;;;;5041213;28;20208;-30
2022/11/09 10:32:58;;;;;;;8.43;1.90;;;16.10;99.90;;;;;;5025437;28;20204;-30
2022/11/09 10:35:31;;;;;;;6.60;1.67;;;16.20;99.90;;;;;;5035173;28;20288;-31
2022/11/09 10:38:00;;;;;;;5.13;1.73;;;16.20;99.90;;;;;;5027657;28;20259;-31
2022/11/09 10:40:30;;;;;;;7.67;1.60;;;16.20;99.90;;;;;;5031180;28;20778;-31
2022/11/09 10:43:04;;;;;;;9.83;1.80;;;16.30;99.90;;;;;;5022214;28;20219;-31
2022/11/09 10:45:36;;;;;;;8.03;2.03;;;16.30;99.90;;;;;;5024810;28;20224;-31
2022/11/09 10:48:07;;;;;;;10.40;2.37;;;16.40;99.90;;;;;;5031244;28;21120;-31
2022/11/09 10:50:47;;;;;;;6.17;2.00;;;16.40;99.90;;;;;;5031705;28;20220;-30
2022/11/09 10:53:18;;;;;;;5.33;1.50;;;16.50;99.90;;;;;;5035606;28;20340;-31
2022/11/09 10:56:08;;;;;;;7.00;1.80;;;16.50;99.90;;;;;;5027706;28;20211;-31
2022/11/09 10:58:38;;;;;;;5.97;1.70;;;16.50;99.90;;;;;;5024452;28;20221;-31
2022/11/09 11:01:37;;;;;;;9.43;2.00;;;16.50;99.90;;;;;;5008654;28;20220;-30
2022/11/09 11:04:23;;;;;;;5.20;1.57;;;16.60;99.90;;;;;;5032554;28;20317;-31
2022/11/09 11:06:50;;;;;;;7.23;1.60;;;16.60;99.90;;;;;;5046493;28;20196;-30
2022/11/09 11:09:21;;;;;;;5.70;1.70;;;16.70;99.90;;;;;;5020279;28;20221;-30
2022/11/09 11:12:12;;;;;;;7.53;1.70;;;16.70;99.90;;;;;;5022591;28;20201;-30
2022/11/09 11:14:43;;;;;;;6.07;1.87;;;16.70;99.90;;;;;;5029738;28;20315;-30
2022/11/09 11:17:22;;;;;;;8.30;1.97;;;16.70;99.90;;;;;;5024332;28;20295;-30
2022/11/09 11:19:49;;;;;;;6.43;1.73;;;16.80;99.90;;;;;;5021356;28;20729;-30
2022/11/09 11:22:26;;;;;;;6.30;1.40;;;16.70;99.90;;;;;;5017685;28;20296;-30
2022/11/09 11:24:54;;;;;;;4.60;1.50;;;16.70;99.90;;;;;;5018124;28;20429;-30
2022/11/09 11:27:45;;;;;;;9.20;1.67;;;16.70;99.90;;;;;;5015344;28;20283;-30
2022/11/09 11:30:18;;;;;;;11.37;2.07;;;16.60;99.90;;;;;;5017546;28;20221;-30
2022/11/09 11:32:45;;;;;;;8.27;1.87;;;16.60;99.90;;;;;;5024305;28;20586;-30
2022/11/09 11:35:42;;;;;;;9.37;1.97;;;16.70;99.90;;;;;;5015659;28;20233;-30
2022/11/09 11:38:32;;;;;;;9.90;2.70;;;16.70;99.90;;;;;;5015523;28;20249;-30
2022/11/09 11:41:25;;;;;;;12.00;2.60;;;16.70;99.90;;;;;;5016998;28;20237;-30
2022/11/09 11:44:01;;;;;;;6.10;1.97;;;16.80;99.90;;;;;;5012555;28;20217;-30
2022/11/09 11:46:47;;;;;;;8.53;1.90;;;16.80;99.90;;;;;;5009423;28;20217;-30
2022/11/09 11:49:37;;;;;;;8.40;2.00;;;16.80;99.90;;;;;;5019723;28;20237;-30
2022/11/09 11:52:29;;;;;;;7.73;2.00;;;16.80;99.90;;;;;;5019896;28;20213;-30
2022/11/09 11:55:14;;;;;;;9.27;1.93;;;16.80;99.90;;;;;;5029886;28;20238;-30
2022/11/09 11:57:45;;;;;;;8.33;1.63;;;16.80;99.90;;;;;;5020649;28;20205;-30
2022/11/09 12:00:17;;;;;;;8.17;1.50;;;16.80;99.90;;;;;;5025743;28;20264;-31
2022/11/09 12:03:03;;;;;;;8.73;1.73;;;16.80;99.90;;;;;;5032486;28;20200;-31
2022/11/09 12:05:46;;;;;;;5.67;1.83;;;16.80;99.90;;;;;;5025781;28;20625;-31
2022/11/09 12:08:34;;;;;;;6.57;1.83;;;16.80;99.90;;;;;;5014016;28;20204;-31
2022/11/09 12:11:39;;;;;;;9.93;1.80;;;16.80;99.90;;;;;;5030272;28;20615;-31
2022/11/09 12:14:32;;;;;;;7.00;1.70;;;16.80;99.90;;;;;;5025704;28;20907;-31
2022/11/09 12:17:10;;;;;;;6.93;1.77;;;16.80;99.90;;;;;;5025794;28;20761;-31
2022/11/09 12:20:02;;;;;;;7.13;1.90;;;16.80;99.90;;;;;;5039345;28;20213;-31
2022/11/09 12:22:40;;;;;;;5.50;1.70;;;16.80;99.90;;;;;;5026756;28;20221;-31
2022/11/09 12:25:23;;;;;;;5.20;1.43;;;16.80;99.90;;;;;;5030627;28;20213;-31
2022/11/09 12:28:05;;;;;;;8.87;2.00;;;16.90;99.90;;;;;;5022028;28;20307;-31
2022/11/09 12:30:43;;;;;;;7.03;1.93;;;16.80;99.90;;;;;;5018123;28;20267;-31
2022/11/09 12:33:36;;;;;;;6.83;1.37;;;16.80;99.90;;;;;;5017031;28;20484;-31
2022/11/09 12:36:24;;;;;;;7.60;1.13;;;16.80;99.90;;;;;;5026079;28;20287;-31
2022/11/09 12:39:12;;;;;;;6.20;1.40;;;16.80;99.90;;;;;;5020937;28;20216;-31
2022/11/09 12:41:45;;;;;;;3.87;1.47;;;16.80;99.90;;;;;;5031912;28;20191;-30
2022/11/09 12:44:24;;;;;;;4.03;1.10;;;16.80;99.90;;;;;;5034703;28;20212;-30
2022/11/09 12:47:02;;;;;;;4.63;1.00;;;16.70;99.90;;;;;;5037920;28;20208;-30
2022/11/09 12:49:40;;;;;;;5.30;1.40;;;16.70;99.90;;;;;;5023109;28;20241;-31
2022/11/09 12:52:11;;;;;;;6.53;1.50;;;16.70;99.90;;;;;;5024934;28;20558;-30
2022/11/09 12:54:42;;;;;;;4.30;1.30;;;16.70;99.90;;;;;;5037468;28;20228;-29
2022/11/09 12:57:16;;;;;;;6.03;1.20;;;16.70;99.90;;;;;;5044809;28;20675;-30
2022/11/09 12:59:52;;;;;;;4.87;1.43;;;16.60;99.90;;;;;;5032437;28;20272;-30
2022/11/09 13:02:26;;;;;;;4.33;1.40;;;16.60;99.90;;;;;;5035416;28;20192;-30
2022/11/09 13:04:58;;;;;;;5.83;1.10;;;16.50;99.90;;;;;;5045381;28;20220;-29
2022/11/09 13:07:32;;;;;;;3.37;0.93;;;16.50;99.90;;;;;;5044324;28;20671;-30
2022/11/09 13:10:02;;;;;;;3.07;0.90;;;16.40;99.90;;;;;;5027723;28;20216;-29
2022/11/09 13:12:38;;;;;;;3.80;1.07;;;16.30;99.90;;;;;;5018382;28;20556;-31
2022/11/09 13:15:29;;;;;;;3.83;1.40;;;16.30;99.90;;;;;;5005742;28;20713;-30
2022/11/09 13:18:22;;;;;;;3.00;1.10;;;16.30;99.90;;;;;;5005615;28;20197;-30